createdAt,value
2017-02-22T00:00:05.972Z,10.5
2017-02-22T00:00:15.966Z,10.4
2017-02-22T00:00:25.961Z,10.5
2017-02-22T00:00:35.956Z,10.5
2017-02-22T00:00:45.947Z,10.4
2017-02-22T00:00:55.944Z,10.5
2017-02-22T00:01:05.937Z,10.5
2017-02-22T00:01:15.929Z,10.5
2017-02-22T00:01:25.924Z,10.5
2017-02-22T00:01:35.920Z,10.5
2017-02-22T00:01:45.915Z,10.5
2017-02-22T00:01:55.909Z,10.5
2017-02-22T00:02:05.901Z,10.5
2017-02-22T00:02:15.894Z,10.5
2017-02-22T00:02:25.887Z,10.4
2017-02-22T00:02:35.881Z,10.5
2017-02-22T00:02:45.876Z,10.5
2017-02-22T00:02:55.871Z,10.4
2017-02-22T00:03:05.866Z,10.4
2017-02-22T00:03:15.861Z,10.5
2017-02-22T00:03:25.854Z,10.4
2017-02-22T00:03:35.846Z,10.5
2017-02-22T00:03:45.842Z,10.5
2017-02-22T00:03:55.835Z,10.5
2017-02-22T00:04:05.827Z,10.5
2017-02-22T00:04:15.821Z,10.5
2017-02-22T00:04:25.819Z,10.5
2017-02-22T00:04:35.813Z,10.5
2017-02-22T00:04:45.807Z,10.5
2017-02-22T00:04:55.798Z,10.5
2017-02-22T00:05:05.792Z,10.5
2017-02-22T00:05:15.785Z,10.5
2017-02-22T00:05:25.779Z,10.6
2017-02-22T00:05:35.775Z,10.5
2017-02-22T00:05:45.769Z,10.5
2017-02-22T00:05:55.764Z,10.5
2017-02-22T00:06:05.756Z,10.5
2017-02-22T00:06:15.750Z,10.5
2017-02-22T00:06:25.746Z,10.6
2017-02-22T00:06:35.741Z,10.5
2017-02-22T00:06:45.733Z,10.5
2017-02-22T00:06:55.725Z,10.5
2017-02-22T00:07:05.721Z,10.5
2017-02-22T00:07:15.714Z,10.5
2017-02-22T00:07:25.710Z,10.5
2017-02-22T00:07:35.704Z,10.5
2017-02-22T00:07:45.695Z,10.5
2017-02-22T00:07:55.689Z,10.5
2017-02-22T00:08:05.683Z,10.5
2017-02-22T00:08:15.677Z,10.5
2017-02-22T00:08:25.674Z,10.5
2017-02-22T00:08:35.669Z,10.6
2017-02-22T00:08:45.660Z,10.6
2017-02-22T00:08:55.655Z,10.5
2017-02-22T00:09:05.648Z,10.5
2017-02-22T00:09:15.643Z,10.5
2017-02-22T00:09:25.635Z,10.5
2017-02-22T00:09:35.632Z,10.5
2017-02-22T00:09:45.623Z,10.5
2017-02-22T00:09:55.619Z,10.5
2017-02-22T00:10:05.611Z,10.6
2017-02-22T00:10:15.605Z,10.4
2017-02-22T00:10:25.598Z,10.5
2017-02-22T00:10:35.595Z,10.5
2017-02-22T00:10:45.588Z,10.4
2017-02-22T00:10:55.580Z,10.6
2017-02-22T00:11:05.578Z,10.6
2017-02-22T00:11:15.569Z,10.5
2017-02-22T00:11:25.564Z,10.5
2017-02-22T00:11:35.560Z,10.5
2017-02-22T00:11:45.552Z,10.5
2017-02-22T00:11:55.547Z,10.4
2017-02-22T00:12:05.541Z,10.5
2017-02-22T00:12:15.536Z,10.5
2017-02-22T00:12:25.527Z,10.5
2017-02-22T00:12:35.521Z,10.5
2017-02-22T00:12:45.515Z,10.5
2017-02-22T00:12:55.511Z,10.5
2017-02-22T00:13:05.503Z,10.5
2017-02-22T00:13:15.499Z,10.5
2017-02-22T00:13:25.491Z,10.5
2017-02-22T00:13:35.484Z,10.5
2017-02-22T00:13:45.478Z,10.5
2017-02-22T00:13:55.475Z,10.4
2017-02-22T00:14:05.468Z,10.5
2017-02-22T00:14:15.464Z,10.5
2017-02-22T00:14:25.455Z,10.6
2017-02-22T00:14:35.451Z,10.5
2017-02-22T00:14:45.444Z,10.5
2017-02-22T00:14:55.439Z,10.5
2017-02-22T00:15:05.431Z,10.5
2017-02-22T00:15:15.427Z,10.5
2017-02-22T00:15:25.421Z,10.6
2017-02-22T00:15:35.415Z,10.6
2017-02-22T00:15:45.408Z,10.5
2017-02-22T00:15:55.403Z,10.5
2017-02-22T00:16:05.394Z,10.5
2017-02-22T00:16:15.389Z,10.6
2017-02-22T00:16:25.385Z,10.6
2017-02-22T00:16:35.378Z,10.6
2017-02-22T00:16:45.373Z,10.6
2017-02-22T00:16:55.364Z,10.5
2017-02-22T00:17:05.361Z,10.6
2017-02-22T00:17:15.353Z,10.6
2017-02-22T00:17:25.350Z,10.6
2017-02-22T00:17:35.343Z,10.6
2017-02-22T00:17:45.334Z,10.6
2017-02-22T00:17:55.331Z,10.6
2017-02-22T00:18:05.322Z,10.6
2017-02-22T00:18:15.318Z,10.6
2017-02-22T00:18:25.310Z,10.6
2017-02-22T00:18:35.306Z,10.6
2017-02-22T00:18:45.299Z,10.6
2017-02-22T00:18:55.292Z,10.6
2017-02-22T00:19:05.289Z,10.5
2017-02-22T00:19:15.281Z,10.6
2017-02-22T00:19:25.274Z,10.5
2017-02-22T00:19:35.270Z,10.5
2017-02-22T00:19:45.263Z,10.5
2017-02-22T00:19:55.257Z,10.5
2017-02-22T00:20:05.254Z,10.6
2017-02-22T00:20:15.248Z,10.5
2017-02-22T00:20:25.238Z,10.6
2017-02-22T00:20:35.232Z,10.5
2017-02-22T00:20:45.225Z,10.6
2017-02-22T00:20:55.221Z,10.6
2017-02-22T00:21:05.216Z,10.6
2017-02-22T00:21:15.212Z,10.5
2017-02-22T00:21:25.202Z,10.5
2017-02-22T00:21:35.196Z,10.5
2017-02-22T00:21:45.194Z,10.6
2017-02-22T00:21:55.185Z,10.6
2017-02-22T00:22:05.179Z,10.5
2017-02-22T00:22:15.175Z,10.6
2017-02-22T00:22:25.169Z,10.5
2017-02-22T00:22:35.162Z,10.5
2017-02-22T00:22:45.158Z,10.5
2017-02-22T00:22:55.148Z,10.5
2017-02-22T00:23:05.146Z,10.5
2017-02-22T00:23:15.139Z,10.5
2017-02-22T00:23:25.130Z,10.5
2017-02-22T00:23:35.127Z,10.5
2017-02-22T00:23:45.118Z,10.5
2017-02-22T00:23:55.117Z,10.5
2017-02-22T00:24:05.108Z,10.5
2017-02-22T00:24:15.100Z,10.5
2017-02-22T00:24:25.100Z,10.5
2017-02-22T00:24:35.090Z,10.6
2017-02-22T00:24:45.082Z,10.5
2017-02-22T00:24:55.076Z,10.6
2017-02-22T00:25:05.070Z,10.5
2017-02-22T00:25:15.067Z,10.5
2017-02-22T00:25:25.061Z,10.5
2017-02-22T00:25:35.054Z,10.6
2017-02-22T00:25:45.048Z,10.6
2017-02-22T00:25:55.040Z,10.5
2017-02-22T00:26:05.034Z,10.5
2017-02-22T00:26:15.029Z,10.6
2017-02-22T00:26:25.022Z,10.6
2017-02-22T00:26:35.018Z,10.6
2017-02-22T00:26:45.012Z,10.6
2017-02-22T00:26:55.006Z,10.6
2017-02-22T00:27:04.998Z,10.5
2017-02-22T00:27:14.993Z,10.6
2017-02-22T00:27:24.987Z,10.5
2017-02-22T00:27:34.982Z,10.5
2017-02-22T00:27:44.973Z,10.6
2017-02-22T00:27:54.971Z,10.6
2017-02-22T00:28:04.964Z,10.6
2017-02-22T00:28:14.958Z,10.6
2017-02-22T00:28:24.950Z,10.6
2017-02-22T00:28:34.945Z,10.6
2017-02-22T00:28:44.941Z,10.6
2017-02-22T00:28:54.932Z,10.6
2017-02-22T00:29:04.928Z,10.6
2017-02-22T00:29:14.922Z,10.6
2017-02-22T00:29:24.916Z,10.6
2017-02-22T00:29:34.909Z,10.6
2017-02-22T00:29:44.901Z,10.6
2017-02-22T00:29:54.897Z,10.6
2017-02-22T00:30:04.889Z,10.7
2017-02-22T00:30:14.884Z,10.6
2017-02-22T00:30:24.877Z,10.7
2017-02-22T00:30:34.874Z,10.7
2017-02-22T00:30:44.868Z,10.6
2017-02-22T00:30:54.862Z,10.6
2017-02-22T00:31:04.855Z,10.6
2017-02-22T00:31:14.848Z,10.7
2017-02-22T00:31:24.842Z,10.7
2017-02-22T00:31:34.836Z,10.6
2017-02-22T00:31:44.829Z,10.6
2017-02-22T00:31:54.823Z,10.6
2017-02-22T00:32:04.820Z,10.7
2017-02-22T00:32:14.811Z,10.6
2017-02-22T00:32:24.809Z,10.7
2017-02-22T00:32:34.803Z,10.6
2017-02-22T00:32:44.796Z,10.6
2017-02-22T00:32:54.790Z,10.6
2017-02-22T00:33:04.781Z,10.7
2017-02-22T00:33:14.776Z,10.6
2017-02-22T00:33:24.772Z,10.7
2017-02-22T00:33:34.764Z,10.6
2017-02-22T00:33:44.760Z,10.6
2017-02-22T00:33:54.752Z,10.6
2017-02-22T00:34:04.748Z,10.7
2017-02-22T00:34:14.740Z,10.7
2017-02-22T00:34:24.733Z,10.7
2017-02-22T00:34:34.727Z,10.6
2017-02-22T00:34:44.722Z,10.6
2017-02-22T00:34:54.715Z,10.6
2017-02-22T00:35:04.712Z,10.7
2017-02-22T00:35:14.705Z,10.7
2017-02-22T00:35:24.701Z,10.7
2017-02-22T00:35:34.692Z,10.6
2017-02-22T00:35:44.688Z,10.7
2017-02-22T00:35:54.681Z,10.7
2017-02-22T00:36:04.676Z,10.7
2017-02-22T00:36:14.667Z,10.7
2017-02-22T00:36:24.664Z,10.7
2017-02-22T00:36:34.659Z,10.7
2017-02-22T00:36:44.651Z,10.7
2017-02-22T00:36:54.644Z,10.7
2017-02-22T00:37:04.637Z,10.7
2017-02-22T00:37:14.631Z,10.7
2017-02-22T00:37:24.629Z,10.6
2017-02-22T00:37:34.621Z,10.7
2017-02-22T00:37:44.614Z,10.7
2017-02-22T00:37:54.611Z,10.7
2017-02-22T00:38:04.601Z,10.6
2017-02-22T00:38:14.595Z,10.7
2017-02-22T00:38:24.592Z,10.6
2017-02-22T00:38:34.583Z,10.7
2017-02-22T00:38:44.578Z,10.7
2017-02-22T00:38:54.571Z,10.7
2017-02-22T00:39:04.567Z,10.7
2017-02-22T00:39:14.560Z,10.8
2017-02-22T00:39:24.556Z,10.7
2017-02-22T00:39:34.547Z,10.8
2017-02-22T00:39:44.542Z,10.6
2017-02-22T00:39:54.535Z,10.7
2017-02-22T00:40:04.530Z,10.7
2017-02-22T00:40:14.526Z,10.6
2017-02-22T00:40:24.519Z,10.7
2017-02-22T00:40:34.515Z,10.8
2017-02-22T00:40:44.505Z,10.8
2017-02-22T00:40:54.502Z,10.7
2017-02-22T00:41:04.493Z,10.7
2017-02-22T00:41:14.490Z,10.7
2017-02-22T00:41:24.484Z,10.8
2017-02-22T00:41:34.477Z,10.8
2017-02-22T00:41:44.471Z,10.7
2017-02-22T00:41:54.467Z,10.6
2017-02-22T00:42:04.457Z,10.6
2017-02-22T00:42:14.452Z,10.7
2017-02-22T00:42:24.446Z,10.6
2017-02-22T00:42:34.442Z,10.7
2017-02-22T00:42:44.435Z,10.7
2017-02-22T00:42:54.430Z,10.6
2017-02-22T00:43:04.423Z,10.7
2017-02-22T00:43:14.415Z,10.7
2017-02-22T00:43:24.411Z,10.7
2017-02-22T00:43:34.406Z,10.6
2017-02-22T00:43:44.400Z,10.7
2017-02-22T00:43:54.393Z,10.7
2017-02-22T00:44:04.388Z,10.7
2017-02-22T00:44:14.381Z,10.8
2017-02-22T00:44:24.375Z,10.8
2017-02-22T00:44:34.368Z,10.7
2017-02-22T00:44:44.363Z,10.8
2017-02-22T00:44:54.358Z,10.7
2017-02-22T00:45:04.351Z,10.8
2017-02-22T00:45:14.346Z,10.7
2017-02-22T00:45:24.337Z,10.7
2017-02-22T00:45:34.333Z,10.7
2017-02-22T00:45:44.327Z,10.7
2017-02-22T00:45:54.320Z,10.7
2017-02-22T00:46:04.315Z,10.8
2017-02-22T00:46:14.309Z,10.6
2017-02-22T00:46:24.304Z,10.7
2017-02-22T00:46:34.298Z,10.7
2017-02-22T00:46:44.290Z,10.8
2017-02-22T00:46:54.283Z,10.7
2017-02-22T00:47:04.277Z,10.8
2017-02-22T00:47:14.271Z,10.7
2017-02-22T00:47:24.264Z,10.6
2017-02-22T00:47:34.261Z,10.7
2017-02-22T00:47:44.256Z,10.7
2017-02-22T00:47:54.249Z,10.8
2017-02-22T00:48:04.245Z,10.8
2017-02-22T00:48:14.236Z,10.7
2017-02-22T00:48:24.229Z,10.7
2017-02-22T00:48:34.223Z,10.7
2017-02-22T00:48:44.217Z,10.7
2017-02-22T00:48:54.212Z,10.7
2017-02-22T00:49:04.207Z,10.7
2017-02-22T00:49:14.199Z,10.8
2017-02-22T00:49:24.194Z,10.8
2017-02-22T00:49:34.189Z,10.8
2017-02-22T00:49:44.183Z,10.7
2017-02-22T00:49:54.176Z,10.7
2017-02-22T00:50:04.172Z,10.8
2017-02-22T00:50:14.164Z,10.8
2017-02-22T00:50:24.158Z,10.7
2017-02-22T00:50:34.154Z,10.7
2017-02-22T00:50:44.147Z,10.7
2017-02-22T00:50:54.141Z,10.7
2017-02-22T00:51:04.137Z,10.8
2017-02-22T00:51:14.127Z,10.8
2017-02-22T00:51:24.121Z,10.7
2017-02-22T00:51:34.120Z,10.7
2017-02-22T00:51:44.110Z,10.8
2017-02-22T00:51:54.105Z,10.7
2017-02-22T00:52:04.097Z,10.8
2017-02-22T00:52:14.091Z,10.7
2017-02-22T00:52:24.088Z,10.7
2017-02-22T00:52:34.082Z,10.8
2017-02-22T00:52:44.072Z,10.7
2017-02-22T00:52:54.069Z,10.7
2017-02-22T00:53:04.064Z,10.7
2017-02-22T00:53:14.055Z,10.7
2017-02-22T00:53:24.049Z,10.7
2017-02-22T00:53:34.046Z,10.7
2017-02-22T00:53:44.039Z,10.8
2017-02-22T00:53:54.033Z,10.8
2017-02-22T00:54:04.026Z,10.8
2017-02-22T00:54:14.018Z,10.8
2017-02-22T00:54:24.014Z,10.8
2017-02-22T00:54:34.007Z,10.8
2017-02-22T00:54:44.004Z,10.8
2017-02-22T00:54:53.994Z,10.8
2017-02-22T00:55:03.992Z,10.7
2017-02-22T00:55:13.983Z,10.8
2017-02-22T00:55:23.976Z,10.8
2017-02-22T00:55:33.970Z,10.8
2017-02-22T00:55:43.965Z,10.8
2017-02-22T00:55:53.959Z,10.7
2017-02-22T00:56:03.954Z,10.8
2017-02-22T00:56:13.946Z,10.7
2017-02-22T00:56:23.944Z,10.7
2017-02-22T00:56:33.938Z,10.7
2017-02-22T00:56:43.929Z,10.8
2017-02-22T00:56:53.922Z,10.8
2017-02-22T00:57:03.916Z,10.8
2017-02-22T00:57:13.910Z,10.8
2017-02-22T00:57:23.906Z,10.8
2017-02-22T00:57:33.902Z,10.8
2017-02-22T00:57:43.898Z,10.8
2017-02-22T00:57:53.890Z,10.8
2017-02-22T00:58:03.880Z,10.8
2017-02-22T00:58:13.877Z,10.8
2017-02-22T00:58:23.870Z,10.8
2017-02-22T00:58:33.865Z,10.8
2017-02-22T00:58:43.857Z,10.9
2017-02-22T00:58:53.853Z,10.8
2017-02-22T00:59:03.845Z,10.8
2017-02-22T00:59:13.841Z,10.9
2017-02-22T00:59:23.835Z,10.7
2017-02-22T00:59:33.827Z,10.8
2017-02-22T00:59:43.822Z,10.8
2017-02-22T00:59:53.816Z,10.8
2017-02-22T01:00:03.812Z,10.8
2017-02-22T01:00:13.802Z,10.8
2017-02-22T01:00:23.799Z,10.7
2017-02-22T01:00:33.794Z,10.8
2017-02-22T01:00:43.785Z,10.8
2017-02-22T01:00:53.781Z,10.8
2017-02-22T01:01:03.772Z,10.7
2017-02-22T01:01:13.768Z,10.8
2017-02-22T01:01:23.763Z,10.8
2017-02-22T01:01:33.757Z,10.8
2017-02-22T01:01:43.750Z,10.8
2017-02-22T01:02:02.619Z,10.7
2017-02-22T01:02:22.608Z,10.8
2017-02-22T01:02:32.601Z,10.8
2017-02-22T01:02:42.593Z,10.8
2017-02-22T01:02:52.589Z,10.9
2017-02-22T01:03:13.789Z,10.9
2017-02-22T01:03:22.571Z,10.8
2017-02-22T01:03:32.566Z,10.8
2017-02-22T01:03:42.557Z,10.8
2017-02-22T01:04:00.585Z,10.8
2017-02-22T01:04:10.580Z,10.8
2017-02-22T01:04:20.575Z,10.9
2017-02-22T01:04:30.569Z,10.8
2017-02-22T01:04:40.562Z,10.9
2017-02-22T01:04:50.557Z,10.9
2017-02-22T01:05:00.552Z,10.8
2017-02-22T01:05:10.548Z,10.9
2017-02-22T01:05:20.539Z,10.8
2017-02-22T01:05:30.534Z,10.8
2017-02-22T01:05:40.528Z,10.8
2017-02-22T01:05:50.519Z,10.8
2017-02-22T01:06:00.516Z,10.9
2017-02-22T01:06:10.509Z,10.8
2017-02-22T01:06:20.502Z,10.7
2017-02-22T01:06:30.495Z,10.7
2017-02-22T01:06:40.491Z,10.8
2017-02-22T01:06:50.486Z,10.9
2017-02-22T01:07:00.480Z,10.8
2017-02-22T01:07:10.494Z,10.8
2017-02-22T01:07:20.467Z,10.8
2017-02-22T01:07:30.461Z,10.9
2017-02-22T01:07:40.457Z,10.8
2017-02-22T01:07:50.450Z,10.9
2017-02-22T01:08:00.442Z,10.8
2017-02-22T01:08:10.438Z,10.8
2017-02-22T01:08:20.431Z,10.9
2017-02-22T01:08:30.427Z,10.8
2017-02-22T01:08:40.420Z,10.8
2017-02-22T01:08:50.414Z,10.8
2017-02-22T01:09:00.406Z,10.8
2017-02-22T01:09:10.402Z,10.9
2017-02-22T01:09:20.393Z,10.8
2017-02-22T01:09:30.392Z,10.8
2017-02-22T01:09:40.382Z,10.9
2017-02-22T01:09:50.376Z,10.8
2017-02-22T01:10:00.370Z,10.9
2017-02-22T01:10:10.364Z,11
2017-02-22T01:10:20.361Z,10.9
2017-02-22T01:10:30.354Z,11
2017-02-22T01:10:40.348Z,10.9
2017-02-22T01:10:50.342Z,10.8
2017-02-22T01:11:00.335Z,10.9
2017-02-22T01:11:10.328Z,10.9
2017-02-22T01:11:20.323Z,10.9
2017-02-22T01:11:30.316Z,11
2017-02-22T01:12:00.644Z,10.9
2017-02-22T01:12:10.632Z,10.9
2017-02-22T01:12:40.828Z,10.9
2017-02-22T01:12:50.819Z,11
2017-02-22T01:13:00.816Z,10.9
2017-02-22T01:13:10.810Z,10.9
2017-02-22T01:13:20.804Z,10.9
2017-02-22T01:13:30.797Z,10.9
2017-02-22T01:13:40.792Z,10.8
2017-02-22T01:13:50.788Z,10.9
2017-02-22T01:14:00.780Z,10.8
2017-02-22T01:14:10.774Z,10.9
2017-02-22T01:14:20.766Z,10.9
2017-02-22T01:14:30.760Z,11
2017-02-22T01:14:40.753Z,10.9
2017-02-22T01:14:50.751Z,10.9
2017-02-22T01:15:00.744Z,10.9
2017-02-22T01:15:10.739Z,10.9
2017-02-22T01:15:20.731Z,11
2017-02-22T01:15:30.725Z,10.9
2017-02-22T01:15:40.718Z,10.9
2017-02-22T01:15:50.713Z,11
2017-02-22T01:16:00.706Z,10.9
2017-02-22T01:16:10.701Z,10.9
2017-02-22T01:16:20.697Z,11
2017-02-22T01:16:30.689Z,11
2017-02-22T01:16:40.685Z,11
2017-02-22T01:16:50.676Z,11
2017-02-22T01:17:00.673Z,10.9
2017-02-22T01:17:10.665Z,11
2017-02-22T01:17:20.659Z,10.9
2017-02-22T01:17:30.655Z,10.9
2017-02-22T01:17:40.647Z,11
2017-02-22T01:17:50.642Z,11
2017-02-22T01:18:00.635Z,11
2017-02-22T01:18:10.628Z,11
2017-02-22T01:18:20.623Z,10.9
2017-02-22T01:18:30.616Z,11
2017-02-22T01:18:40.610Z,10.9
2017-02-22T01:18:50.605Z,10.9
2017-02-22T01:19:00.599Z,10.8
2017-02-22T01:19:10.596Z,10.9
2017-02-22T01:19:20.589Z,10.9
2017-02-22T01:19:30.581Z,10.9
2017-02-22T01:19:40.576Z,11
2017-02-22T01:19:50.568Z,11
2017-02-22T01:20:00.565Z,10.9
2017-02-22T01:20:10.556Z,11
2017-02-22T01:20:20.551Z,10.9
2017-02-22T01:20:30.545Z,11
2017-02-22T01:20:40.540Z,10.9
2017-02-22T01:20:50.534Z,10.8
2017-02-22T01:21:00.526Z,10.8
2017-02-22T01:21:10.522Z,10.8
2017-02-22T01:21:20.516Z,10.8
2017-02-22T01:21:30.509Z,10.8
2017-02-22T01:21:40.504Z,10.8
2017-02-22T01:21:50.498Z,10.8
2017-02-22T01:22:00.492Z,10.8
2017-02-22T01:22:10.484Z,10.8
2017-02-22T01:22:20.481Z,10.9
2017-02-22T01:22:30.472Z,10.8
2017-02-22T01:22:40.466Z,10.8
2017-02-22T01:22:50.461Z,10.8
2017-02-22T01:23:00.455Z,10.8
2017-02-22T01:23:10.453Z,10.8
2017-02-22T01:23:20.444Z,10.9
2017-02-22T01:23:30.463Z,10.8
2017-02-22T01:23:40.433Z,10.8
2017-02-22T01:23:50.424Z,10.8
2017-02-22T01:24:00.418Z,10.8
2017-02-22T01:24:10.413Z,10.8
2017-02-22T01:24:20.406Z,10.9
2017-02-22T01:24:30.404Z,10.8
2017-02-22T01:24:40.394Z,10.9
2017-02-22T01:24:50.391Z,10.8
2017-02-22T01:25:00.383Z,10.8
2017-02-22T01:25:10.377Z,10.9
2017-02-22T01:25:20.370Z,11
2017-02-22T01:25:30.366Z,10.9
2017-02-22T01:25:40.361Z,10.9
2017-02-22T01:25:50.353Z,11
2017-02-22T01:26:00.349Z,11
2017-02-22T01:26:10.342Z,11
2017-02-22T01:26:20.337Z,10.9
2017-02-22T01:26:30.330Z,10.9
2017-02-22T01:26:40.326Z,10.9
2017-02-22T01:26:50.318Z,10.9
2017-02-22T01:27:00.313Z,10.8
2017-02-22T01:27:10.305Z,10.9
2017-02-22T01:27:20.300Z,10.9
2017-02-22T01:27:30.294Z,10.9
2017-02-22T01:27:40.290Z,10.8
2017-02-22T01:27:50.282Z,10.9
2017-02-22T01:28:00.277Z,10.9
2017-02-22T01:28:10.273Z,10.8
2017-02-22T01:28:20.262Z,10.9
2017-02-22T01:28:30.257Z,10.9
2017-02-22T01:28:40.251Z,10.9
2017-02-22T01:28:50.246Z,11
2017-02-22T01:29:00.240Z,10.9
2017-02-22T01:29:10.236Z,11
2017-02-22T01:29:20.228Z,11
2017-02-22T01:29:30.222Z,10.9
2017-02-22T01:29:40.215Z,10.9
2017-02-22T01:29:50.212Z,10.9
2017-02-22T01:30:00.203Z,11
2017-02-22T01:30:10.214Z,11
2017-02-22T01:30:20.191Z,10.9
2017-02-22T01:30:30.187Z,11
2017-02-22T01:30:40.181Z,11
2017-02-22T01:30:50.176Z,10.9
2017-02-22T01:31:00.167Z,11
2017-02-22T01:31:10.161Z,10.9
2017-02-22T01:31:20.155Z,11
2017-02-22T01:31:30.152Z,10.9
2017-02-22T01:31:40.145Z,11
2017-02-22T01:31:50.138Z,11
2017-02-22T01:32:00.134Z,10.9
2017-02-22T01:32:10.128Z,10.9
2017-02-22T01:32:20.121Z,10.9
2017-02-22T01:32:30.115Z,10.9
2017-02-22T01:32:40.107Z,10.9
2017-02-22T01:32:50.104Z,11
2017-02-22T01:33:00.097Z,10.8
2017-02-22T01:33:10.092Z,11
2017-02-22T01:33:20.083Z,10.9
2017-02-22T01:33:30.078Z,11
2017-02-22T01:33:40.073Z,11
2017-02-22T01:33:50.068Z,10.9
2017-02-22T01:34:00.062Z,10.9
2017-02-22T01:34:10.053Z,11
2017-02-22T01:34:20.050Z,11
2017-02-22T01:34:30.043Z,11
2017-02-22T01:34:40.039Z,11
2017-02-22T01:34:50.032Z,11
2017-02-22T01:35:00.025Z,10.9
2017-02-22T01:35:10.019Z,11
2017-02-22T01:35:20.011Z,11
2017-02-22T01:35:30.008Z,10.9
2017-02-22T01:35:40.003Z,11
2017-02-22T01:35:49.996Z,11
2017-02-22T01:35:59.991Z,10.9
2017-02-22T01:36:09.982Z,10.9
2017-02-22T01:36:19.976Z,10.9
2017-02-22T01:36:29.971Z,11
2017-02-22T01:36:39.966Z,10.9
2017-02-22T01:36:49.958Z,10.9
2017-02-22T01:36:59.954Z,11
2017-02-22T01:37:09.947Z,11
2017-02-22T01:37:19.943Z,11
2017-02-22T01:37:29.937Z,11
2017-02-22T01:37:39.930Z,11
2017-02-22T01:37:49.922Z,11
2017-02-22T01:37:59.916Z,11
2017-02-22T01:38:09.910Z,11
2017-02-22T01:38:19.906Z,11.1
2017-02-22T01:38:29.900Z,11
2017-02-22T01:38:39.895Z,10.9
2017-02-22T01:38:49.887Z,11
2017-02-22T01:38:59.883Z,11
2017-02-22T01:39:09.875Z,11
2017-02-22T01:39:19.871Z,11
2017-02-22T01:39:29.865Z,11
2017-02-22T01:39:39.857Z,11
2017-02-22T01:39:49.851Z,11
2017-02-22T01:39:59.848Z,11
2017-02-22T01:40:09.839Z,11
2017-02-22T01:40:19.835Z,11
2017-02-22T01:40:29.828Z,11.1
2017-02-22T01:40:39.821Z,11
2017-02-22T01:40:49.817Z,11
2017-02-22T01:40:59.809Z,11
2017-02-22T01:41:09.803Z,11
2017-02-22T01:41:19.800Z,11
2017-02-22T01:41:29.794Z,11
2017-02-22T01:41:39.789Z,11
2017-02-22T01:41:49.780Z,11
2017-02-22T01:41:59.777Z,11
2017-02-22T01:42:09.768Z,11
2017-02-22T01:42:19.764Z,11
2017-02-22T01:42:29.755Z,11
2017-02-22T01:42:39.751Z,10.9
2017-02-22T01:42:49.747Z,10.9
2017-02-22T01:42:59.740Z,11
2017-02-22T01:43:09.734Z,10.9
2017-02-22T01:43:19.728Z,11
2017-02-22T01:43:29.720Z,11
2017-02-22T01:43:39.716Z,11
2017-02-22T01:43:49.707Z,10.9
2017-02-22T01:43:59.704Z,11
2017-02-22T01:44:09.696Z,11
2017-02-22T01:44:19.692Z,10.9
2017-02-22T01:44:29.687Z,11
2017-02-22T01:44:39.677Z,11
2017-02-22T01:44:49.672Z,10.9
2017-02-22T01:44:59.669Z,11
2017-02-22T01:45:09.661Z,11
2017-02-22T01:45:19.654Z,11
2017-02-22T01:45:29.648Z,11
2017-02-22T01:45:39.644Z,11
2017-02-22T01:45:49.636Z,11
2017-02-22T01:45:59.630Z,11
2017-02-22T01:46:09.627Z,11
2017-02-22T01:46:19.618Z,11
2017-02-22T01:46:29.612Z,11
2017-02-22T01:46:39.607Z,11
2017-02-22T01:46:49.604Z,11.1
2017-02-22T01:46:59.597Z,11
2017-02-22T01:47:09.590Z,11
2017-02-22T01:47:19.582Z,11
2017-02-22T01:47:29.577Z,11
2017-02-22T01:47:39.571Z,11
2017-02-22T01:47:49.564Z,11
2017-02-22T01:47:59.560Z,11
2017-02-22T01:48:09.555Z,11
2017-02-22T01:48:19.548Z,10.9
2017-02-22T01:48:29.542Z,11
2017-02-22T01:48:39.534Z,11.1
2017-02-22T01:48:49.531Z,11
2017-02-22T01:48:59.525Z,11.1
2017-02-22T01:49:09.518Z,11
2017-02-22T01:49:19.513Z,11
2017-02-22T01:49:29.505Z,11
2017-02-22T01:49:39.499Z,11
2017-02-22T01:49:49.493Z,11.1
2017-02-22T01:49:59.487Z,11
2017-02-22T01:50:09.482Z,11
2017-02-22T01:50:19.474Z,11.1
2017-02-22T01:50:29.471Z,11.2
2017-02-22T01:50:39.463Z,11
2017-02-22T01:50:49.460Z,11.1
2017-02-22T01:50:59.452Z,11.1
2017-02-22T01:51:09.447Z,11
2017-02-22T01:51:19.438Z,11.1
2017-02-22T01:51:29.433Z,11
2017-02-22T01:51:39.429Z,11
2017-02-22T01:51:49.423Z,11
2017-02-22T01:51:59.415Z,11
2017-02-22T01:52:09.410Z,11
2017-02-22T01:52:19.405Z,11
2017-02-22T01:52:29.397Z,11.1
2017-02-22T01:52:39.393Z,11
2017-02-22T01:52:49.387Z,11
2017-02-22T01:52:59.382Z,11
2017-02-22T01:53:09.376Z,11.1
2017-02-22T01:53:19.370Z,11.1
2017-02-22T01:53:29.362Z,11.1
2017-02-22T01:53:39.355Z,11
2017-02-22T01:53:49.349Z,11
2017-02-22T01:53:59.343Z,11.1
2017-02-22T01:54:09.339Z,11.1
2017-02-22T01:54:19.335Z,11
2017-02-22T01:54:29.326Z,11
2017-02-22T01:54:39.320Z,11.1
2017-02-22T01:54:49.314Z,11
2017-02-22T01:54:59.311Z,11
2017-02-22T01:55:09.303Z,11
2017-02-22T01:55:19.295Z,11
2017-02-22T01:55:29.292Z,10.9
2017-02-22T01:55:39.286Z,10.9
2017-02-22T01:55:49.278Z,11
2017-02-22T01:55:59.275Z,10.9
2017-02-22T01:56:09.270Z,11
2017-02-22T01:56:19.263Z,10.9
2017-02-22T01:56:29.254Z,11
2017-02-22T01:56:39.247Z,11
2017-02-22T01:56:49.244Z,10.9
2017-02-22T01:56:59.236Z,11.1
2017-02-22T01:57:09.231Z,11
2017-02-22T01:57:19.227Z,11.1
2017-02-22T01:57:29.221Z,11.1
2017-02-22T01:57:39.214Z,11
2017-02-22T01:57:49.209Z,11.1
2017-02-22T01:57:59.199Z,11.1
2017-02-22T01:58:09.195Z,11.1
2017-02-22T01:58:19.191Z,11
2017-02-22T01:58:29.183Z,11.1
2017-02-22T01:58:39.178Z,11
2017-02-22T01:58:49.172Z,11.1
2017-02-22T01:58:59.165Z,11
2017-02-22T01:59:09.162Z,11
2017-02-22T01:59:19.152Z,11
2017-02-22T01:59:29.147Z,11
2017-02-22T01:59:39.141Z,11
2017-02-22T01:59:49.137Z,11.1
2017-02-22T01:59:59.129Z,11
2017-02-22T02:00:09.122Z,11
2017-02-22T02:00:19.125Z,11.1
2017-02-22T02:00:29.114Z,11
2017-02-22T02:00:39.104Z,11
2017-02-22T02:00:49.099Z,11
2017-02-22T02:00:59.095Z,10.9
2017-02-22T02:01:09.089Z,11
2017-02-22T02:01:19.081Z,11
2017-02-22T02:01:29.078Z,11
2017-02-22T02:01:39.072Z,11.1
2017-02-22T02:01:49.064Z,11
2017-02-22T02:01:59.060Z,11
2017-02-22T02:02:09.051Z,11
2017-02-22T02:02:19.050Z,11
2017-02-22T02:02:29.039Z,11
2017-02-22T02:02:39.036Z,11
2017-02-22T02:02:49.029Z,10.9
2017-02-22T02:02:59.024Z,11.1
2017-02-22T02:03:09.016Z,11
2017-02-22T02:03:19.015Z,11
2017-02-22T02:03:29.006Z,11
2017-02-22T02:03:39.001Z,11
2017-02-22T02:03:48.992Z,11
2017-02-22T02:03:58.987Z,11
2017-02-22T02:04:08.982Z,11
2017-02-22T02:04:18.978Z,11
2017-02-22T02:04:28.972Z,11.1
2017-02-22T02:04:38.964Z,11.2
2017-02-22T02:04:48.958Z,11.1
2017-02-22T02:04:58.952Z,11.1
2017-02-22T02:05:08.947Z,11.1
2017-02-22T02:05:18.938Z,11.1
2017-02-22T02:05:28.932Z,11
2017-02-22T02:05:38.927Z,11.1
2017-02-22T02:05:48.924Z,11.1
2017-02-22T02:05:58.917Z,11
2017-02-22T02:06:08.911Z,11
2017-02-22T02:06:18.905Z,11
2017-02-22T02:06:28.898Z,11
2017-02-22T02:06:38.890Z,11
2017-02-22T02:06:48.887Z,11.1
2017-02-22T02:06:58.878Z,11.1
2017-02-22T02:07:08.873Z,11
2017-02-22T02:07:18.866Z,11
2017-02-22T02:07:28.863Z,11
2017-02-22T02:07:38.855Z,11
2017-02-22T02:07:48.848Z,11
2017-02-22T02:07:58.842Z,11.1
2017-02-22T02:08:08.839Z,11.1
2017-02-22T02:08:18.830Z,11
2017-02-22T02:08:28.828Z,11
2017-02-22T02:08:38.821Z,11
2017-02-22T02:08:49.548Z,11
2017-02-22T02:08:59.543Z,11
2017-02-22T02:09:09.536Z,11
2017-02-22T02:09:20.744Z,11
2017-02-22T02:09:29.528Z,11
2017-02-22T02:09:39.750Z,11.1
2017-02-22T02:10:00.712Z,11
2017-02-22T02:10:10.074Z,11.1
2017-02-22T02:10:20.067Z,11.1
2017-02-22T02:10:30.063Z,11
2017-02-22T02:10:40.058Z,11.1
2017-02-22T02:10:50.049Z,11
2017-02-22T02:11:00.046Z,11.1
2017-02-22T02:11:10.039Z,11.1
2017-02-22T02:11:20.034Z,11.1
2017-02-22T02:11:30.026Z,11
2017-02-22T02:11:40.022Z,11
2017-02-22T02:11:50.014Z,11.1
2017-02-22T02:12:00.009Z,11.1
2017-02-22T02:12:10.003Z,11
2017-02-22T02:12:19.996Z,11
2017-02-22T02:12:29.993Z,11
2017-02-22T02:12:39.986Z,11
2017-02-22T02:12:49.981Z,11
2017-02-22T02:12:59.975Z,11.1
2017-02-22T02:13:09.967Z,11.1
2017-02-22T02:13:19.960Z,11
2017-02-22T02:13:29.952Z,11
2017-02-22T02:13:39.951Z,11
2017-02-22T02:13:49.942Z,11
2017-02-22T02:13:59.936Z,11.1
2017-02-22T02:14:09.931Z,11.1
2017-02-22T02:14:19.926Z,11
2017-02-22T02:14:29.921Z,11.1
2017-02-22T02:14:39.915Z,11.1
2017-02-22T02:14:49.907Z,11.1
2017-02-22T02:14:59.903Z,11
2017-02-22T02:15:09.896Z,11
2017-02-22T02:15:19.891Z,11
2017-02-22T02:15:29.882Z,11.1
2017-02-22T02:15:39.879Z,11.1
2017-02-22T02:15:49.872Z,11.2
2017-02-22T02:15:59.867Z,11.2
2017-02-22T02:16:09.861Z,11.1
2017-02-22T02:16:19.855Z,11
2017-02-22T02:16:29.846Z,11.1
2017-02-22T02:16:39.840Z,11
2017-02-22T02:16:49.835Z,11